Time;durP1;ratioP1;P1;durP2;ratioP2;P2;SDS_P1;SDS_P2;PMS_P1;PMS_P2;Temp;Humidity;BMP_temperature;BMP_pressure;BME280_temperature;BME280_humidity;BME280_pressure;Samples;Min_cycle;Max_cycle;Signal;HPM_P1;HPM_P2
2023/06/04 00:01:45;;;;;;;4.93;3.08;;;11.20;99.90;;;;;;4914367;28;20431;-77
2023/06/04 00:04:11;;;;;;;5.32;3.45;;;11.10;99.90;;;;;;4913476;28;20449;-79
2023/06/04 00:06:37;;;;;;;7.80;3.20;;;11.00;99.90;;;;;;4912989;28;20083;-79
2023/06/04 00:09:03;;;;;;;5.60;2.83;;;11.00;99.90;;;;;;4908476;28;20134;-76
2023/06/04 00:11:29;;;;;;;5.28;3.38;;;10.90;99.90;;;;;;4890401;29;20037;-77
2023/06/04 00:13:54;;;;;;;5.00;3.38;;;10.90;99.90;;;;;;4922506;29;20044;-76
2023/06/04 00:16:20;;;;;;;5.93;3.28;;;10.90;99.90;;;;;;4975843;28;20361;-77
2023/06/04 00:18:46;;;;;;;5.72;3.30;;;10.80;99.90;;;;;;4913664;29;20075;-76
2023/06/04 00:21:11;;;;;;;9.07;3.80;;;10.80;99.90;;;;;;4895212;28;20044;-75
2023/06/04 00:23:37;;;;;;;6.45;3.05;;;10.80;99.90;;;;;;4895972;29;20044;-79
2023/06/04 00:26:03;;;;;;;7.50;3.28;;;10.80;99.90;;;;;;4912621;28;20043;-76
2023/06/04 00:28:29;;;;;;;6.50;3.33;;;10.80;99.90;;;;;;4926885;28;20040;-76
2023/06/04 00:30:55;;;;;;;4.70;3.05;;;10.80;99.90;;;;;;4911477;28;20047;-77
2023/06/04 00:33:20;;;;;;;6.75;3.40;;;10.70;99.90;;;;;;4928784;29;20050;-77
2023/06/04 00:35:46;;;;;;;7.95;3.03;;;10.70;99.90;;;;;;4928265;28;20122;-77
2023/06/04 00:38:12;;;;;;;8.25;3.35;;;10.70;99.90;;;;;;4908921;28;20096;-78
2023/06/04 00:40:38;;;;;;;6.97;3.63;;;10.70;99.90;;;;;;4893146;29;20123;-77
2023/06/04 00:43:03;;;;;;;6.40;3.10;;;10.70;99.90;;;;;;4894001;28;20110;-76
2023/06/04 00:45:30;;;;;;;4.65;3.10;;;10.70;99.90;;;;;;4893748;29;20052;-74
2023/06/04 00:47:56;;;;;;;4.82;3.03;;;10.60;99.90;;;;;;4879147;29;20515;-74
2023/06/04 00:50:22;;;;;;;5.60;3.20;;;10.60;99.90;;;;;;4926787;28;20040;-77
2023/06/04 00:52:50;;;;;;;10.48;3.67;;;10.60;99.90;;;;;;4912893;29;20062;-78
2023/06/04 00:55:18;;;;;;;6.88;3.45;;;10.60;99.90;;;;;;4913015;29;20507;-75
2023/06/04 00:57:43;;;;;;;7.35;3.40;;;10.70;99.90;;;;;;4928400;29;20035;-78
2023/06/04 01:00:10;;;;;;;9.65;3.60;;;10.80;99.90;;;;;;4905701;28;20054;-78
2023/06/04 01:02:40;;;;;;;6.70;3.25;;;10.80;99.90;;;;;;4928644;28;20412;-76
2023/06/04 01:05:32;;;;;;;5.78;2.88;;;10.90;99.90;;;;;;4911900;28;20054;-74
2023/06/04 01:07:58;;;;;;;10.23;3.25;;;10.90;99.90;;;;;;4915368;29;20111;-75
2023/06/04 01:10:24;;;;;;;6.78;3.28;;;10.90;99.90;;;;;;4929838;28;20040;-76
2023/06/04 01:12:50;;;;;;;6.60;3.72;;;10.80;99.90;;;;;;4930171;28;20369;-76
2023/06/04 01:15:15;;;;;;;8.25;3.58;;;10.70;99.90;;;;;;4926981;29;20492;-75
2023/06/04 01:17:43;;;;;;;6.50;3.70;;;10.70;99.90;;;;;;4915479;29;20492;-76
2023/06/04 01:20:27;;;;;;;7.38;4.07;;;10.70;99.90;;;;;;4915334;28;20472;-77
2023/06/04 01:23:13;;;;;;;7.78;4.05;;;10.70;99.90;;;;;;4930605;28;20612;-76
2023/06/04 01:25:41;;;;;;;10.93;4.30;;;10.70;99.90;;;;;;4930639;29;20042;-75
2023/06/04 01:28:10;;;;;;;11.73;4.40;;;10.80;99.90;;;;;;4917525;29;20044;-76
2023/06/04 01:30:42;;;;;;;8.32;4.40;;;10.90;99.90;;;;;;4916109;28;20054;-77
2023/06/04 01:33:10;;;;;;;11.00;5.03;;;11.10;99.90;;;;;;4913054;28;20043;-75
2023/06/04 01:35:36;;;;;;;9.15;4.80;;;11.20;99.90;;;;;;4930432;28;20039;-76
2023/06/04 01:38:02;;;;;;;7.15;4.30;;;11.10;99.90;;;;;;4914126;28;20058;-75
2023/06/04 01:40:28;;;;;;;7.85;4.40;;;11.00;99.90;;;;;;4930520;28;20126;-75
2023/06/04 01:42:55;;;;;;;6.45;3.90;;;10.90;99.90;;;;;;4925287;28;20499;-76
2023/06/04 01:45:21;;;;;;;8.02;4.18;;;10.80;99.90;;;;;;4914561;28;20052;-78
2023/06/04 01:47:47;;;;;;;6.18;4.10;;;10.80;99.90;;;;;;4913927;29;20048;-75
2023/06/04 01:50:13;;;;;;;7.07;4.50;;;10.70;99.90;;;;;;4929613;28;20040;-77
2023/06/04 01:52:40;;;;;;;9.65;4.20;;;10.80;99.90;;;;;;4897711;28;20575;-76
2023/06/04 01:55:07;;;;;;;9.50;5.05;;;10.80;99.90;;;;;;4923754;28;20400;-77
2023/06/04 01:57:35;;;;;;;16.45;6.30;;;10.90;99.90;;;;;;4914660;29;20046;-77
2023/06/04 02:00:01;;;;;;;9.15;5.45;;;10.80;99.90;;;;;;4931275;28;20052;-75
2023/06/04 02:02:27;;;;;;;7.78;5.05;;;10.90;99.90;;;;;;4912581;29;20035;-76
2023/06/04 02:04:53;;;;;;;9.90;5.38;;;10.90;99.90;;;;;;4914184;28;20117;-77
2023/06/04 02:07:21;;;;;;;10.77;5.50;;;10.90;99.90;;;;;;4914206;29;20048;-77
2023/06/04 02:09:48;;;;;;;6.80;4.90;;;10.90;99.90;;;;;;4913573;29;20376;-76
2023/06/04 02:12:13;;;;;;;6.43;4.93;;;10.90;99.90;;;;;;4926585;28;20040;-76
2023/06/04 02:14:41;;;;;;;8.52;4.45;;;10.60;99.90;;;;;;4921788;28;20048;-76
2023/06/04 02:17:12;;;;;;;5.30;4.50;;;10.50;99.90;;;;;;4910944;28;20043;-76
2023/06/04 02:19:44;;;;;;;6.03;4.38;;;10.50;99.90;;;;;;4912703;28;20074;-76
2023/06/04 02:22:14;;;;;;;6.55;4.10;;;10.40;99.90;;;;;;4911664;29;20055;-77
2023/06/04 02:24:42;;;;;;;4.00;3.30;;;10.40;99.90;;;;;;4911471;28;20480;-74
2023/06/04 02:27:08;;;;;;;5.43;4.07;;;10.20;99.90;;;;;;4911904;28;20043;-76
2023/06/04 02:29:35;;;;;;;6.72;4.50;;;10.30;99.90;;;;;;4912425;28;20589;-77
2023/06/04 02:32:03;;;;;;;8.55;5.18;;;10.30;99.90;;;;;;4928539;28;20051;-78
2023/06/04 02:34:29;;;;;;;6.20;4.97;;;10.30;99.90;;;;;;4914657;28;20404;-78
2023/06/04 02:36:54;;;;;;;11.02;4.90;;;10.30;99.90;;;;;;4913035;28;20048;-76
2023/06/04 02:39:20;;;;;;;7.32;4.65;;;10.20;99.90;;;;;;4900514;28;20040;-78
2023/06/04 02:41:46;;;;;;;6.70;4.88;;;10.20;99.90;;;;;;4915969;29;20066;-78
2023/06/04 02:44:12;;;;;;;4.97;4.47;;;10.10;99.90;;;;;;4913982;28;20040;-77
2023/06/04 02:46:38;;;;;;;7.30;4.20;;;10.10;99.90;;;;;;4931180;29;20047;-75
2023/06/04 02:49:04;;;;;;;6.55;3.53;;;10.10;99.90;;;;;;4930546;28;20424;-77
2023/06/04 02:51:30;;;;;;;10.80;4.38;;;10.00;99.90;;;;;;4912783;28;20075;-76
2023/06/04 02:53:56;;;;;;;6.88;5.00;;;10.20;99.90;;;;;;4928607;28;20106;-77
2023/06/04 02:56:22;;;;;;;8.18;4.22;;;10.10;99.90;;;;;;4930074;28;20052;-75
2023/06/04 02:58:52;;;;;;;4.90;4.40;;;10.10;99.90;;;;;;4914686;28;20046;-76
2023/06/04 03:01:20;;;;;;;7.20;4.20;;;10.10;99.90;;;;;;4914757;28;20048;-75
2023/06/04 03:03:45;;;;;;;11.40;4.50;;;10.00;99.90;;;;;;4930530;29;20040;-79
2023/06/04 03:06:14;;;;;;;8.57;3.97;;;9.90;99.90;;;;;;4913643;28;20123;-77
2023/06/04 03:08:40;;;;;;;8.35;4.82;;;10.00;99.90;;;;;;4914044;29;20123;-76
2023/06/04 03:11:06;;;;;;;5.38;4.32;;;9.90;99.90;;;;;;4929961;28;20114;-78
2023/06/04 03:13:32;;;;;;;7.20;4.72;;;9.90;99.90;;;;;;4931011;29;20154;-76
2023/06/04 03:16:00;;;;;;;11.75;4.80;;;10.00;99.90;;;;;;4928395;28;20106;-76
2023/06/04 03:18:27;;;;;;;7.47;5.22;;;10.00;99.90;;;;;;4930226;29;20048;-77
2023/06/04 03:20:53;;;;;;;8.80;5.00;;;10.10;99.90;;;;;;4914135;28;20040;-77
2023/06/04 03:23:20;;;;;;;10.00;5.60;;;10.10;99.90;;;;;;4898691;28;20138;-75
2023/06/04 03:25:46;;;;;;;10.57;5.53;;;10.10;99.90;;;;;;4926787;28;20626;-78
2023/06/04 03:28:12;;;;;;;7.20;4.45;;;10.20;99.90;;;;;;4883726;29;20040;-77
2023/06/04 03:30:39;;;;;;;6.47;5.07;;;10.20;99.90;;;;;;4900056;29;20502;-78
2023/06/04 03:33:04;;;;;;;6.45;5.05;;;10.10;99.90;;;;;;4978154;28;20432;-78
2023/06/04 03:35:30;;;;;;;8.13;5.05;;;10.10;99.90;;;;;;4913009;28;20055;-80
2023/06/04 03:37:56;;;;;;;8.68;4.65;;;10.20;99.90;;;;;;4914228;29;20483;-77
2023/06/04 03:40:21;;;;;;;6.85;4.45;;;10.10;99.90;;;;;;4898317;28;20066;-79
2023/06/04 03:42:47;;;;;;;8.48;4.78;;;10.10;99.90;;;;;;4912411;29;20109;-76
2023/06/04 03:45:13;;;;;;;7.70;4.53;;;10.10;99.90;;;;;;4928253;28;20101;-79
2023/06/04 03:47:39;;;;;;;6.50;4.47;;;10.10;99.90;;;;;;4913597;29;20416;-78
2023/06/04 03:50:06;;;;;;;5.80;4.38;;;10.10;99.90;;;;;;4929605;28;20043;-76
2023/06/04 03:52:32;;;;;;;5.07;4.57;;;10.10;99.90;;;;;;4930177;28;20064;-79
2023/06/04 03:55:00;;;;;;;7.78;4.70;;;10.10;99.90;;;;;;4915407;28;20098;-77
2023/06/04 03:57:25;;;;;;;5.32;4.43;;;10.20;99.90;;;;;;4941122;28;20076;-79
2023/06/04 03:59:51;;;;;;;8.20;4.47;;;10.20;99.90;;;;;;4898627;29;20075;-79
2023/06/04 04:02:18;;;;;;;7.07;4.45;;;10.30;99.90;;;;;;4895531;28;20460;-75
2023/06/04 04:04:44;;;;;;;6.10;4.47;;;10.20;99.90;;;;;;4921926;29;20108;-78
2023/06/04 04:07:10;;;;;;;6.78;4.75;;;10.20;99.90;;;;;;4916902;29;20122;-80
2023/06/04 04:09:36;;;;;;;6.03;4.22;;;10.30;99.90;;;;;;4907309;29;20044;-77
2023/06/04 04:12:03;;;;;;;6.70;4.40;;;10.30;99.90;;;;;;4929447;28;20039;-75
2023/06/04 04:14:29;;;;;;;5.03;4.18;;;10.30;99.90;;;;;;4914374;28;20055;-77
2023/06/04 04:16:55;;;;;;;6.55;4.82;;;10.40;99.90;;;;;;4914343;29;20488;-79
2023/06/04 04:19:20;;;;;;;7.05;4.57;;;10.40;99.90;;;;;;4900626;29;20048;-79
2023/06/04 04:21:48;;;;;;;9.60;5.70;;;10.40;99.90;;;;;;4917433;28;20044;-75
2023/06/04 04:24:24;;;;;;;5.82;4.50;;;10.50;99.90;;;;;;4926914;28;20047;-78
2023/06/04 04:26:53;;;;;;;10.25;5.25;;;10.70;99.90;;;;;;4935458;29;20394;-78
2023/06/04 04:29:24;;;;;;;10.70;5.72;;;10.80;99.90;;;;;;4920207;29;20075;-77
2023/06/04 04:31:50;;;;;;;10.65;5.25;;;10.80;99.90;;;;;;4922755;29;20051;-79
2023/06/04 04:34:16;;;;;;;10.80;5.70;;;10.80;99.90;;;;;;4923257;29;20043;-76
2023/06/04 04:36:44;;;;;;;8.98;5.30;;;10.90;99.90;;;;;;4914095;29;20071;-77
2023/06/04 04:39:10;;;;;;;8.20;5.43;;;11.00;99.90;;;;;;4926509;28;20050;-79
2023/06/04 04:41:38;;;;;;;8.10;4.78;;;11.10;99.90;;;;;;4927030;28;20098;-76
2023/06/04 04:44:05;;;;;;;7.25;5.05;;;10.90;99.90;;;;;;4928548;29;20071;-78
2023/06/04 04:46:30;;;;;;;8.93;4.85;;;11.10;99.90;;;;;;4929255;29;20122;-80
2023/06/04 04:48:56;;;;;;;7.53;4.93;;;11.10;99.90;;;;;;4910622;28;20767;-79
2023/06/04 04:51:22;;;;;;;9.38;4.75;;;11.10;99.90;;;;;;4912394;29;20044;-76
2023/06/04 04:53:48;;;;;;;7.55;5.25;;;11.20;99.90;;;;;;4924459;28;20082;-79
2023/06/04 04:56:14;;;;;;;7.22;5.30;;;11.30;99.90;;;;;;4928331;28;20040;-78
2023/06/04 04:58:40;;;;;;;8.27;5.68;;;11.40;99.90;;;;;;4927987;28;20051;-78
2023/06/04 05:01:05;;;;;;;9.38;5.75;;;11.40;99.90;;;;;;4910584;28;20043;-80
2023/06/04 05:03:31;;;;;;;11.32;6.18;;;11.50;99.90;;;;;;4929387;29;20048;-81
2023/06/04 05:05:57;;;;;;;8.75;6.20;;;11.50;99.90;;;;;;4928798;28;20079;-77
2023/06/04 05:08:22;;;;;;;8.88;6.18;;;11.70;99.90;;;;;;4881448;28;20039;-79
2023/06/04 05:10:50;;;;;;;10.02;5.70;;;11.80;99.90;;;;;;4925837;28;20385;-77
2023/06/04 05:13:16;;;;;;;7.50;5.95;;;11.90;99.90;;;;;;4912390;28;20399;-76
2023/06/04 05:15:42;;;;;;;8.07;5.80;;;12.10;99.90;;;;;;4912813;28;20036;-77
2023/06/04 05:18:08;;;;;;;10.38;6.10;;;12.20;99.90;;;;;;4911670;29;20058;-77
2023/06/04 05:20:37;;;;;;;11.30;6.10;;;12.20;99.90;;;;;;4927480;28;20039;-79
2023/06/04 05:23:03;;;;;;;7.80;6.20;;;12.40;99.90;;;;;;4928917;29;20105;-75
2023/06/04 05:25:29;;;;;;;11.45;7.00;;;12.40;99.90;;;;;;4897695;29;20459;-77
2023/06/04 05:27:58;;;;;;;10.38;6.20;;;12.60;99.90;;;;;;4919365;28;20074;-78
2023/06/04 05:30:24;;;;;;;12.10;6.15;;;12.80;99.90;;;;;;4910751;29;20040;-79
2023/06/04 05:32:50;;;;;;;11.88;6.28;;;12.80;99.90;;;;;;4928822;29;20039;-81
2023/06/04 05:35:16;;;;;;;13.00;6.57;;;13.10;99.90;;;;;;4912661;29;20051;-79
2023/06/04 05:37:45;;;;;;;10.15;6.70;;;13.00;99.90;;;;;;4892365;28;20048;-80
2023/06/04 05:40:11;;;;;;;9.13;5.72;;;13.10;99.90;;;;;;4928409;28;20117;-80
2023/06/04 05:42:37;;;;;;;15.52;6.63;;;13.40;99.90;;;;;;4912534;29;20388;-77
2023/06/04 05:45:04;;;;;;;12.50;6.47;;;13.40;99.90;;;;;;4928467;28;20071;-78
2023/06/04 05:47:29;;;;;;;12.02;6.35;;;13.60;99.90;;;;;;4924366;28;20040;-77
2023/06/04 05:49:55;;;;;;;13.88;6.88;;;13.70;99.90;;;;;;4893346;29;20046;-77
2023/06/04 05:52:21;;;;;;;15.38;6.57;;;13.60;99.90;;;;;;4911393;28;20090;-76
2023/06/04 05:54:47;;;;;;;15.43;6.53;;;14.00;99.90;;;;;;4913318;28;20110;-74
2023/06/04 05:57:12;;;;;;;10.25;5.50;;;14.00;99.90;;;;;;4912450;28;20052;-73
2023/06/04 05:59:38;;;;;;;10.63;5.32;;;14.10;99.90;;;;;;4910471;28;20135;-74
2023/06/04 06:02:04;;;;;;;9.85;5.13;;;14.10;99.90;;;;;;4927291;28;20135;-73
2023/06/04 06:04:30;;;;;;;10.32;5.00;;;14.10;99.90;;;;;;4924717;29;20106;-75
2023/06/04 06:06:56;;;;;;;8.82;4.88;;;14.20;99.90;;;;;;4930294;28;20059;-76
2023/06/04 06:09:22;;;;;;;8.48;4.65;;;14.20;99.90;;;;;;4911965;29;20040;-74
2023/06/04 06:11:48;;;;;;;7.25;4.25;;;14.20;99.90;;;;;;4913566;28;20117;-73
2023/06/04 06:14:13;;;;;;;8.75;3.13;;;14.50;99.90;;;;;;4913191;28;20480;-71
2023/06/04 06:16:40;;;;;;;8.38;3.30;;;14.40;99.90;;;;;;4914689;28;20063;-75
2023/06/04 06:19:06;;;;;;;6.78;3.03;;;14.50;99.90;;;;;;4913419;29;20131;-73
2023/06/04 06:21:31;;;;;;;7.78;3.40;;;14.70;99.90;;;;;;4897693;29;20158;-75
2023/06/04 06:23:57;;;;;;;4.35;2.38;;;14.70;99.90;;;;;;4930370;28;20097;-74
2023/06/04 06:26:24;;;;;;;6.25;2.53;;;14.80;99.90;;;;;;4913533;29;20543;-75
2023/06/04 06:28:51;;;;;;;5.82;2.67;;;14.90;99.90;;;;;;4899306;29;20042;-77
2023/06/04 06:31:17;;;;;;;7.13;2.58;;;14.90;99.90;;;;;;4917916;28;20093;-75
2023/06/04 06:33:42;;;;;;;5.57;2.55;;;15.00;99.90;;;;;;4935571;28;20032;-80
2023/06/04 06:36:13;;;;;;;6.72;2.60;;;15.10;99.90;;;;;;4930822;28;20119;-77
2023/06/04 06:38:40;;;;;;;6.65;2.28;;;15.20;99.90;;;;;;4930018;29;20427;-75
2023/06/04 06:41:06;;;;;;;6.50;2.53;;;15.50;99.90;;;;;;4929854;28;20059;-76
2023/06/04 06:43:33;;;;;;;5.32;2.40;;;15.80;99.90;;;;;;4931254;29;20048;-78
2023/06/04 06:45:58;;;;;;;8.27;2.60;;;15.70;99.90;;;;;;4914183;28;20035;-78
2023/06/04 06:48:24;;;;;;;4.72;1.80;;;15.90;99.90;;;;;;4931356;28;20408;-75
2023/06/04 06:50:50;;;;;;;3.55;2.08;;;16.00;99.90;;;;;;4930485;28;20083;-77
2023/06/04 06:53:16;;;;;;;3.30;2.00;;;16.30;99.90;;;;;;4898785;28;20067;-73
2023/06/04 06:55:41;;;;;;;4.95;1.77;;;16.20;99.90;;;;;;4947914;28;20433;-78
2023/06/04 06:58:07;;;;;;;4.55;2.17;;;16.10;99.90;;;;;;4930675;28;20136;-79
2023/06/04 07:00:33;;;;;;;5.07;2.20;;;16.10;99.90;;;;;;4930302;29;20567;-76
2023/06/04 07:02:59;;;;;;;4.88;1.88;;;16.50;99.90;;;;;;4896040;29;20044;-75
2023/06/04 07:05:24;;;;;;;4.78;1.83;;;16.80;99.90;;;;;;4906908;28;20090;-76
2023/06/04 07:07:50;;;;;;;3.83;1.75;;;16.80;99.90;;;;;;4914413;28;20057;-76
2023/06/04 07:10:16;;;;;;;3.97;1.70;;;16.90;99.90;;;;;;4896956;29;20135;-76
2023/06/04 07:12:41;;;;;;;3.90;1.98;;;17.00;99.90;;;;;;4900876;29;20044;-77
2023/06/04 07:15:09;;;;;;;3.05;1.83;;;16.80;99.90;;;;;;4929745;28;20381;-76
2023/06/04 07:17:35;;;;;;;5.22;2.10;;;16.70;99.90;;;;;;4912746;28;20055;-76
2023/06/04 07:20:01;;;;;;;4.95;1.83;;;16.70;99.90;;;;;;4930316;29;20550;-78
2023/06/04 07:22:26;;;;;;;5.20;1.92;;;17.10;99.90;;;;;;4895592;29;20041;-73
2023/06/04 07:24:52;;;;;;;4.30;2.00;;;17.00;99.90;;;;;;4907557;28;20040;-74
2023/06/04 07:27:19;;;;;;;3.47;1.75;;;17.10;99.90;;;;;;4928732;29;20042;-78
2023/06/04 07:29:45;;;;;;;3.00;1.50;;;17.20;99.90;;;;;;4914444;28;20039;-75
2023/06/04 07:32:10;;;;;;;2.33;1.60;;;17.50;99.90;;;;;;4930190;29;20491;-74
2023/06/04 07:34:38;;;;;;;4.15;1.63;;;17.60;99.90;;;;;;4929463;29;20079;-76
2023/06/04 07:37:05;;;;;;;4.20;2.20;;;17.10;99.90;;;;;;4928356;28;20051;-78
2023/06/04 07:39:31;;;;;;;4.32;1.95;;;17.30;99.90;;;;;;4929194;28;20075;-74
2023/06/04 07:41:56;;;;;;;3.08;1.55;;;17.10;99.90;;;;;;4913463;28;20082;-79
2023/06/04 07:44:22;;;;;;;2.15;1.48;;;17.00;99.90;;;;;;4914335;29;20047;-73
2023/06/04 07:46:48;;;;;;;4.57;1.70;;;17.30;99.90;;;;;;4913880;28;20142;-74
2023/06/04 07:49:15;;;;;;;4.57;1.95;;;17.30;99.90;;;;;;4894010;28;20035;-76
2023/06/04 07:51:40;;;;;;;7.03;2.60;;;17.30;99.90;;;;;;4903392;28;20044;-74
2023/06/04 07:54:06;;;;;;;5.28;2.20;;;17.30;99.90;;;;;;4930317;28;20070;-77
2023/06/04 07:56:32;;;;;;;2.80;1.60;;;17.40;99.90;;;;;;4910372;28;20053;-77
2023/06/04 07:58:57;;;;;;;4.20;1.90;;;17.50;99.90;;;;;;4912549;28;20036;-74
2023/06/04 08:01:23;;;;;;;4.70;1.85;;;17.70;99.90;;;;;;4913329;28;20047;-75
2023/06/04 08:03:49;;;;;;;2.50;1.77;;;17.80;99.90;;;;;;4930831;29;20050;-73
2023/06/04 08:06:15;;;;;;;7.28;2.28;;;17.90;99.90;;;;;;4927985;28;20067;-73
2023/06/04 08:08:46;;;;;;;4.13;1.60;;;17.80;99.90;;;;;;4911218;28;20117;-74
2023/06/04 08:11:12;;;;;;;3.67;1.67;;;18.10;99.90;;;;;;4924722;28;20040;-75
2023/06/04 08:13:39;;;;;;;4.30;2.05;;;18.00;99.90;;;;;;4929088;28;20043;-76
2023/06/04 08:16:05;;;;;;;3.70;1.90;;;17.80;99.90;;;;;;4927297;28;20040;-72
2023/06/04 08:18:31;;;;;;;3.78;1.95;;;17.60;99.90;;;;;;4926846;28;20047;-73
2023/06/04 08:20:58;;;;;;;5.18;1.65;;;17.90;99.90;;;;;;4913050;29;20043;-75
2023/06/04 08:23:23;;;;;;;5.97;1.83;;;18.30;99.90;;;;;;4913720;29;20055;-74
2023/06/04 08:25:50;;;;;;;3.85;1.70;;;18.20;99.90;;;;;;4911531;28;20048;-75
2023/06/04 08:28:16;;;;;;;2.58;1.45;;;18.00;99.90;;;;;;4915978;28;20076;-73
2023/06/04 08:30:43;;;;;;;4.35;1.60;;;18.00;99.90;;;;;;4925564;28;21033;-78
2023/06/04 08:33:08;;;;;;;4.22;1.65;;;18.10;99.90;;;;;;4928886;29;20679;-74
2023/06/04 08:35:34;;;;;;;6.05;1.90;;;18.10;99.90;;;;;;4912509;28;20094;-76
2023/06/04 08:38:00;;;;;;;3.13;1.67;;;18.00;99.90;;;;;;4927502;28;20499;-75
2023/06/04 08:40:26;;;;;;;2.95;1.75;;;18.30;99.90;;;;;;4896812;29;20543;-74
2023/06/04 08:42:58;;;;;;;2.50;1.45;;;18.50;99.90;;;;;;4928503;28;20048;-72
2023/06/04 08:45:24;;;;;;;2.72;1.38;;;18.70;99.90;;;;;;4912923;28;20040;-74
2023/06/04 08:47:50;;;;;;;4.13;1.83;;;18.90;99.90;;;;;;4929141;28;20044;-74
2023/06/04 08:50:24;;;;;;;2.33;1.52;;;19.20;99.90;;;;;;4925980;29;20066;-73
2023/06/04 08:52:54;;;;;;;3.33;1.40;;;19.30;99.90;;;;;;4929355;29;20048;-77
2023/06/04 08:55:21;;;;;;;4.63;1.75;;;19.50;99.90;;;;;;4907162;28;20044;-74
2023/06/04 08:57:50;;;;;;;2.63;1.65;;;19.70;99.90;;;;;;4927834;28;20889;-76
2023/06/04 09:00:16;;;;;;;4.60;1.65;;;19.90;99.90;;;;;;4927079;28;20048;-74
2023/06/04 09:02:43;;;;;;;3.60;1.80;;;20.10;99.90;;;;;;4912298;28;20063;-75
2023/06/04 09:05:10;;;;;;;2.80;1.50;;;20.00;99.90;;;;;;4911135;28;20468;-76
2023/06/04 09:07:38;;;;;;;2.38;1.67;;;20.30;99.90;;;;;;4927814;28;20046;-73
2023/06/04 09:10:06;;;;;;;3.58;1.60;;;20.10;99.90;;;;;;4926191;28;20627;-74
2023/06/04 09:12:33;;;;;;;3.03;1.20;;;20.20;99.90;;;;;;4911275;28;20486;-73
2023/06/04 09:14:59;;;;;;;2.63;1.85;;;20.60;99.90;;;;;;4912110;28;20150;-75
2023/06/04 09:17:25;;;;;;;2.20;1.33;;;20.40;99.90;;;;;;4910517;28;20436;-73
2023/06/04 09:19:51;;;;;;;3.15;1.58;;;20.30;91.30;;;;;;4911800;28;20032;-75
2023/06/04 09:22:17;;;;;;;6.13;1.60;;;20.60;99.90;;;;;;4912650;29;20040;-77
2023/06/04 09:24:46;;;;;;;4.28;1.30;;;20.20;99.50;;;;;;4962989;28;20377;-75
2023/06/04 09:27:16;;;;;;;2.17;1.33;;;20.70;99.90;;;;;;4905730;28;20040;-77
2023/06/04 09:29:53;;;;;;;3.65;1.63;;;21.00;99.90;;;;;;4926118;28;20102;-76
2023/06/04 09:32:26;;;;;;;3.38;1.63;;;21.10;91.80;;;;;;4928556;29;20554;-74
2023/06/04 09:34:53;;;;;;;4.18;1.45;;;21.30;80.10;;;;;;4927038;28;20395;-73
2023/06/04 09:37:19;;;;;;;4.78;1.65;;;21.50;76.60;;;;;;4912335;28;20051;-76
2023/06/04 09:39:57;;;;;;;2.75;1.58;;;21.30;95.10;;;;;;4926759;29;20134;-76
2023/06/04 09:42:23;;;;;;;2.70;1.60;;;21.80;25.90;;;;;;4925192;28;20130;-77
2023/06/04 09:44:49;;;;;;;3.25;1.85;;;22.10;67.70;;;;;;4927063;28;20045;-74
2023/06/04 09:47:15;;;;;;;2.78;1.58;;;22.30;65.00;;;;;;4911362;28;20089;-77
2023/06/04 09:49:46;;;;;;;2.83;1.50;;;22.30;12.30;;;;;;4910967;28;20500;-76
2023/06/04 09:52:13;;;;;;;2.42;1.60;;;22.10;17.60;;;;;;4927985;29;20052;-77
2023/06/04 09:54:41;;;;;;;2.05;1.50;;;22.10;28.40;;;;;;4911846;28;20704;-76
2023/06/04 09:57:21;;;;;;;3.08;1.50;;;22.20;25.90;;;;;;4911294;28;20071;-74
2023/06/04 09:59:49;;;;;;;3.92;1.58;;;21.80;1.00;;;;;;4892034;28;20127;-74
2023/06/04 10:02:22;;;;;;;4.00;1.55;;;22.10;5.30;;;;;;4924748;28;20572;-76
2023/06/04 10:04:58;;;;;;;2.35;1.52;;;21.60;1.00;;;;;;4927787;28;20054;-76
2023/06/04 10:07:25;;;;;;;2.95;1.60;;;21.30;1.00;;;;;;4926822;28;20496;-79
2023/06/04 10:09:52;;;;;;;2.42;1.60;;;21.20;1.00;;;;;;4924895;28;20047;-76
2023/06/04 10:12:25;;;;;;;2.38;1.40;;;21.70;1.00;;;;;;4911640;28;20036;-78
2023/06/04 10:15:01;;;;;;;3.13;1.48;;;22.00;1.00;;;;;;4927506;28;20687;-76
2023/06/04 10:17:28;;;;;;;2.42;1.60;;;22.30;1.00;;;;;;4924753;28;20035;-78
2023/06/04 10:19:57;;;;;;;2.58;1.60;;;22.70;1.00;;;;;;4911455;28;20483;-77
2023/06/04 10:22:24;;;;;;;3.65;1.77;;;21.40;1.00;;;;;;4911202;29;20039;-78
2023/06/04 10:24:50;;;;;;;2.47;1.50;;;22.10;1.00;;;;;;4911431;28;20044;-75
2023/06/04 10:27:20;;;;;;;2.47;1.50;;;22.20;1.00;;;;;;4927511;29;20119;-77
2023/06/04 10:29:46;;;;;;;3.22;1.63;;;22.20;1.00;;;;;;4937834;28;20043;-77
2023/06/04 10:32:12;;;;;;;2.55;1.58;;;22.20;1.00;;;;;;4909686;28;20553;-76
2023/06/04 10:34:38;;;;;;;2.38;1.35;;;21.80;1.00;;;;;;4924513;28;20164;-77
2023/06/04 10:37:04;;;;;;;2.70;1.50;;;22.60;1.00;;;;;;4912038;28;20094;-77
2023/06/04 10:39:35;;;;;;;2.28;1.38;;;22.10;1.00;;;;;;4926795;29;20479;-78
2023/06/04 10:42:05;;;;;;;3.42;1.38;;;22.10;1.00;;;;;;4927680;29;20048;-77
2023/06/04 10:44:32;;;;;;;2.20;1.35;;;21.50;1.00;;;;;;4937788;28;20044;-77
2023/06/04 10:46:58;;;;;;;2.90;1.65;;;22.30;1.00;;;;;;4927848;29;20119;-75
2023/06/04 10:49:29;;;;;;;2.83;1.45;;;22.60;1.00;;;;;;4910959;28;20055;-77
2023/06/04 10:52:03;;;;;;;3.10;1.63;;;21.70;1.00;;;;;;4926112;28;20750;-76
2023/06/04 10:54:29;;;;;;;7.72;1.77;;;21.80;1.00;;;;;;4928336;29;20070;-76
2023/06/04 10:56:55;;;;;;;2.65;1.35;;;21.90;1.00;;;;;;4905130;29;20452;-77
2023/06/04 10:59:21;;;;;;;3.92;1.98;;;22.80;1.00;;;;;;4913910;28;20130;-78
2023/06/04 11:01:47;;;;;;;2.55;1.55;;;22.50;1.00;;;;;;4914503;29;20048;-77
2023/06/04 11:04:24;;;;;;;3.63;1.60;;;23.00;1.00;;;;;;4928527;28;20056;-75
2023/06/04 11:07:04;;;;;;;3.30;1.50;;;23.20;1.00;;;;;;4910917;28;20076;-81
2023/06/04 11:09:31;;;;;;;2.92;1.70;;;22.00;1.00;;;;;;4912041;28;20079;-77
2023/06/04 11:12:00;;;;;;;2.83;1.65;;;23.20;1.00;;;;;;4898546;28;20054;-78
2023/06/04 11:14:26;;;;;;;2.53;1.52;;;22.90;1.00;;;;;;4929605;29;20055;-77
2023/06/04 11:16:51;;;;;;;6.10;1.80;;;23.20;1.00;;;;;;4896997;29;20039;-78
2023/06/04 11:19:17;;;;;;;3.85;1.63;;;22.80;1.00;;;;;;4925473;28;20660;-78
2023/06/04 11:21:44;;;;;;;2.72;1.55;;;22.20;1.00;;;;;;4929856;29;20047;-76
2023/06/04 11:24:12;;;;;;;3.42;1.70;;;22.40;1.00;;;;;;4930560;29;20047;-78
2023/06/04 11:26:38;;;;;;;4.78;1.75;;;23.10;1.00;;;;;;4925697;28;20070;-79
2023/06/04 11:29:11;;;;;;;3.00;1.63;;;23.20;1.00;;;;;;4929892;28;20044;-75
2023/06/04 11:31:47;;;;;;;2.70;1.60;;;23.40;1.00;;;;;;4895287;29;20040;-76
2023/06/04 11:34:42;;;;;;;2.58;1.50;;;23.00;99.90;;;;;;4911674;29;20040;-77
2023/06/04 11:37:11;;;;;;;3.08;1.73;;;23.30;99.90;;;;;;4903461;28;20114;-78
2023/06/04 11:39:39;;;;;;;2.70;1.70;;;21.80;99.90;;;;;;4929346;28;20492;-76
2023/06/04 11:42:06;;;;;;;2.83;1.90;;;22.90;99.90;;;;;;4928162;28;20520;-80
2023/06/04 11:44:32;;;;;;;2.72;1.58;;;23.20;99.90;;;;;;4913253;28;20047;-77
2023/06/04 11:46:58;;;;;;;2.90;1.70;;;22.60;99.90;;;;;;4913247;28;20362;-76
2023/06/04 11:49:26;;;;;;;2.47;1.65;;;22.40;99.90;;;;;;4913833;29;20047;-78
2023/06/04 11:51:53;;;;;;;4.63;1.58;;;23.20;99.90;;;;;;4914247;28;20047;-77
2023/06/04 11:54:20;;;;;;;3.30;1.70;;;23.00;99.90;;;;;;4913887;29;20067;-79
2023/06/04 11:56:49;;;;;;;2.30;1.90;;;22.70;99.90;;;;;;4913140;28;20075;-76
2023/06/04 11:59:17;;;;;;;3.60;1.77;;;22.60;99.90;;;;;;4909668;29;20127;-77
2023/06/04 12:01:43;;;;;;;2.90;1.55;;;23.10;99.90;;;;;;4912877;28;20044;-79
2023/06/04 12:04:17;;;;;;;3.85;1.45;;;23.00;99.90;;;;;;4929551;29;20071;-79
2023/06/04 12:06:57;;;;;;;3.47;1.65;;;23.20;99.90;;;;;;4912782;28;20167;-81
2023/06/04 12:09:35;;;;;;;3.42;1.80;;;22.50;99.90;;;;;;4927108;28;20040;-78
2023/06/04 12:12:03;;;;;;;3.70;1.92;;;23.50;99.90;;;;;;4912788;28;20206;-77
2023/06/04 12:14:29;;;;;;;5.13;1.77;;;22.80;99.90;;;;;;4930203;29;20098;-77
2023/06/04 12:17:06;;;;;;;4.15;2.00;;;22.20;99.90;;;;;;4926549;28;20523;-76
2023/06/04 12:19:33;;;;;;;4.40;2.20;;;22.80;99.90;;;;;;4928778;28;20075;-73
2023/06/04 12:22:06;;;;;;;2.22;1.50;;;23.40;99.90;;;;;;4929318;28;20588;-75
2023/06/04 12:24:53;;;;;;;2.78;1.90;;;22.60;99.90;;;;;;4913375;28;20627;-73
2023/06/04 12:27:19;;;;;;;3.58;2.08;;;22.70;99.90;;;;;;4912597;28;20403;-72
2023/06/04 12:29:54;;;;;;;1.73;1.45;;;23.40;99.90;;;;;;4910963;29;20086;-75
2023/06/04 12:32:20;;;;;;;4.85;1.70;;;22.90;99.90;;;;;;4912516;28;20039;-74
2023/06/04 12:34:46;;;;;;;4.88;2.00;;;23.30;99.90;;;;;;4910385;28;20384;-74
2023/06/04 12:37:11;;;;;;;3.17;1.80;;;23.70;99.90;;;;;;4912444;28;20129;-76
2023/06/04 12:39:37;;;;;;;3.85;1.90;;;23.30;99.90;;;;;;4926917;28;20055;-76
2023/06/04 12:42:05;;;;;;;3.25;1.63;;;22.60;99.90;;;;;;4913622;29;20059;-74
2023/06/04 12:44:31;;;;;;;3.35;2.20;;;22.50;99.90;;;;;;4912803;28;20044;-75
2023/06/04 12:46:57;;;;;;;3.72;1.80;;;22.00;99.90;;;;;;4929422;29;20559;-74
2023/06/04 12:49:22;;;;;;;2.40;1.60;;;23.30;99.90;;;;;;4912443;29;20421;-73